createdAt,value
2022-09-21T00:01:27.553Z,3.42
2022-09-21T00:03:56.613Z,2.92
2022-09-21T00:06:25.634Z,4.13
2022-09-21T00:08:54.099Z,2.97
2022-09-21T00:11:27.710Z,2.00
2022-09-21T00:13:57.628Z,1.52
2022-09-21T00:16:24.758Z,2.17
2022-09-21T00:18:51.802Z,2.45
2022-09-21T00:21:19.088Z,1.60
2022-09-21T00:23:48.005Z,3.83
2022-09-21T00:26:17.611Z,2.10
2022-09-21T00:28:44.580Z,2.97
2022-09-21T00:31:14.231Z,1.92
2022-09-21T00:33:42.276Z,2.05
2022-09-21T00:36:14.853Z,3.78
2022-09-21T00:38:44.099Z,6.82
2022-09-21T00:41:13.700Z,1.83
2022-09-21T00:43:45.109Z,2.00
2022-09-21T00:46:27.727Z,3.30
2022-09-21T00:51:21.524Z,2.70
2022-09-21T00:53:51.652Z,5.35
2022-09-21T00:56:20.708Z,3.50
2022-09-21T00:58:50.426Z,7.18
2022-09-21T01:01:18.531Z,3.17
2022-09-21T01:03:47.171Z,3.22
2022-09-21T01:06:16.400Z,1.90
2022-09-21T01:08:45.012Z,2.22
2022-09-21T01:11:57.144Z,1.55
2022-09-21T01:14:56.971Z,2.88
2022-09-21T01:17:46.145Z,1.67
2022-09-21T01:20:26.911Z,2.25
2022-09-21T01:23:02.408Z,5.53
2022-09-21T01:25:53.141Z,3.45
2022-09-21T01:28:41.590Z,1.65
2022-09-21T01:31:14.657Z,4.13
2022-09-21T01:33:53.229Z,2.08
2022-09-21T01:36:24.906Z,3.03
2022-09-21T01:38:58.548Z,4.60
2022-09-21T01:41:28.673Z,2.35
2022-09-21T01:44:08.209Z,2.58
2022-09-21T01:46:37.004Z,2.10
2022-09-21T01:49:31.083Z,2.60
2022-09-21T01:52:11.509Z,3.28
2022-09-21T01:54:45.667Z,1.85
2022-09-21T01:57:23.386Z,2.70
2022-09-21T01:59:57.449Z,2.80
2022-09-21T02:02:51.009Z,3.67
2022-09-21T02:05:21.364Z,2.90
2022-09-21T02:07:48.681Z,2.13
2022-09-21T02:10:36.170Z,2.28
2022-09-21T02:13:07.040Z,3.88
2022-09-21T02:16:07.591Z,2.35
2022-09-21T02:18:43.295Z,3.10
2022-09-21T02:21:33.004Z,2.08
2022-09-21T02:24:15.893Z,3.38
2022-09-21T02:29:52.832Z,2.15
2022-09-21T02:32:37.144Z,4.05
2022-09-21T02:35:37.034Z,1.70
2022-09-21T02:38:19.750Z,3.88
2022-09-21T02:41:06.543Z,4.30
2022-09-21T02:43:52.168Z,4.82
2022-09-21T02:46:28.626Z,2.30
2022-09-21T02:49:00.715Z,2.10
2022-09-21T02:51:37.809Z,3.63
2022-09-21T02:54:08.300Z,3.75
2022-09-21T02:56:38.491Z,2.63
2022-09-21T02:59:06.672Z,2.67
2022-09-21T03:01:39.374Z,2.97
2022-09-21T03:04:06.037Z,3.88
2022-09-21T03:06:36.316Z,2.80
2022-09-21T03:09:03.238Z,3.60
2022-09-21T03:11:33.762Z,2.58
2022-09-21T03:14:07.024Z,5.25
2022-09-21T03:16:33.689Z,2.35
2022-09-21T03:19:00.850Z,2.60
2022-09-21T03:21:35.038Z,2.83
2022-09-21T03:24:01.889Z,2.30
2022-09-21T03:26:31.004Z,2.83
2022-09-21T03:28:57.641Z,3.83
2022-09-21T03:31:24.375Z,4.15
2022-09-21T03:33:51.024Z,4.10
2022-09-21T03:36:20.882Z,4.05
2022-09-21T03:38:50.120Z,3.83
2022-09-21T03:41:16.863Z,3.10
2022-09-21T03:43:46.172Z,4.30
2022-09-21T03:46:15.101Z,3.58
2022-09-21T03:48:47.386Z,5.55
2022-09-21T03:51:14.421Z,5.65
2022-09-21T03:53:43.493Z,3.28
2022-09-21T03:56:10.862Z,2.13
2022-09-21T03:58:37.491Z,3.33
2022-09-21T04:01:04.300Z,3.25
2022-09-21T04:03:33.203Z,2.38
2022-09-21T04:05:59.980Z,2.42
2022-09-21T04:08:26.879Z,3.10
2022-09-21T04:10:56.339Z,2.30
2022-09-21T04:13:29.407Z,5.32
2022-09-21T04:15:58.379Z,3.47
2022-09-21T04:18:25.433Z,2.78
2022-09-21T04:20:56.752Z,1.85
2022-09-21T04:23:27.144Z,3.40
2022-09-21T04:25:54.788Z,3.63
2022-09-21T04:28:22.594Z,2.25
2022-09-21T04:30:54.080Z,2.17
2022-09-21T04:33:22.019Z,3.77
2022-09-21T04:35:51.244Z,3.13
2022-09-21T04:38:17.807Z,2.28
2022-09-21T04:40:55.016Z,2.13
2022-09-21T04:43:22.720Z,2.40
2022-09-21T04:45:52.430Z,3.58
2022-09-21T04:48:19.177Z,4.07
2022-09-21T04:50:52.565Z,2.70
2022-09-21T04:53:19.204Z,2.60
2022-09-21T04:55:46.325Z,2.22
2022-09-21T04:58:12.953Z,4.88
2022-09-21T05:00:39.545Z,4.28
2022-09-21T05:03:06.124Z,3.92
2022-09-21T05:05:33.105Z,5.93
2022-09-21T05:07:59.731Z,3.72
2022-09-21T05:10:26.377Z,5.88
2022-09-21T05:12:53.036Z,5.78
2022-09-21T05:15:20.351Z,4.80
2022-09-21T05:17:47.011Z,5.80
2022-09-21T05:20:13.648Z,5.07
2022-09-21T05:22:40.268Z,9.15
2022-09-21T05:25:07.671Z,6.50
2022-09-21T05:27:34.261Z,7.03
2022-09-21T05:30:01.143Z,5.03
2022-09-21T05:32:33.991Z,7.03
2022-09-21T05:35:12.692Z,5.55
2022-09-21T05:37:59.236Z,5.38
2022-09-21T05:40:28.634Z,4.20
2022-09-21T05:42:56.115Z,7.45
2022-09-21T05:45:23.211Z,5.25
2022-09-21T05:48:15.753Z,7.60
2022-09-21T05:51:12.908Z,7.85
2022-09-21T05:53:53.267Z,8.32
2022-09-21T05:56:34.575Z,6.18
2022-09-21T05:59:13.602Z,8.57
2022-09-21T06:02:06.362Z,6.90
2022-09-21T06:06:59.961Z,4.82
2022-09-21T06:09:27.786Z,6.47
2022-09-21T06:11:54.508Z,10.25
2022-09-21T06:14:25.407Z,7.85
2022-09-21T06:16:52.646Z,6.18
2022-09-21T06:19:19.422Z,5.60
2022-09-21T06:21:48.060Z,7.55
2022-09-21T06:24:14.755Z,8.32
2022-09-21T06:26:41.591Z,6.57
2022-09-21T06:29:08.219Z,6.13
2022-09-21T06:31:35.357Z,5.45
2022-09-21T06:34:05.280Z,6.93
2022-09-21T06:36:32.153Z,7.10
2022-09-21T06:38:58.825Z,6.38
2022-09-21T06:41:25.427Z,5.88
2022-09-21T06:43:56.686Z,5.70
2022-09-21T06:46:23.780Z,7.40
2022-09-21T06:48:50.526Z,6.13
2022-09-21T06:51:17.202Z,6.22
2022-09-21T06:53:43.782Z,6.03
2022-09-21T06:56:10.789Z,5.60
2022-09-21T06:58:38.174Z,8.63
2022-09-21T07:01:09.742Z,8.40
2022-09-21T07:03:36.950Z,9.60
2022-09-21T07:06:03.989Z,7.22
2022-09-21T07:11:17.431Z,7.03
2022-09-21T07:13:45.348Z,7.00
2022-09-21T07:16:12.554Z,7.85
2022-09-21T07:18:43.785Z,6.93
2022-09-21T07:21:11.456Z,6.83
2022-09-21T07:23:38.264Z,9.18
2022-09-21T07:26:10.924Z,5.97
2022-09-21T07:28:38.099Z,7.60
2022-09-21T07:31:15.790Z,10.23
2022-09-21T07:33:44.076Z,8.35
2022-09-21T07:36:12.732Z,8.50
2022-09-21T07:38:43.995Z,8.05
2022-09-21T07:41:13.465Z,7.95
2022-09-21T07:43:40.983Z,6.45
2022-09-21T07:46:12.374Z,8.85
2022-09-21T07:48:39.374Z,8.25
2022-09-21T07:51:08.353Z,7.93
2022-09-21T07:53:40.211Z,9.63
2022-09-21T07:56:09.779Z,8.73
2022-09-21T07:58:56.006Z,11.65
2022-09-21T08:01:23.788Z,16.80
2022-09-21T08:03:52.052Z,9.60
2022-09-21T08:06:19.381Z,11.40
2022-09-21T08:08:47.939Z,10.82
2022-09-21T08:11:16.333Z,11.00
2022-09-21T08:13:43.229Z,10.27
2022-09-21T08:16:10.228Z,10.50
2022-09-21T08:18:39.607Z,14.05
2022-09-21T08:21:07.225Z,11.93
2022-09-21T08:23:40.458Z,12.18
2022-09-21T08:26:07.717Z,11.38
2022-09-21T08:28:36.169Z,12.90
2022-09-21T08:31:05.807Z,11.82
2022-09-21T08:33:32.585Z,14.15
2022-09-21T08:36:01.012Z,12.15
2022-09-21T08:38:33.225Z,14.05
2022-09-21T08:41:02.341Z,13.90
2022-09-21T08:43:34.223Z,11.75
2022-09-21T08:46:03.856Z,14.98
2022-09-21T08:48:36.899Z,10.57
2022-09-21T08:51:11.273Z,11.70
2022-09-21T08:53:41.894Z,14.98
2022-09-21T08:56:13.845Z,12.68
2022-09-21T08:58:41.204Z,13.43
2022-09-21T09:01:19.615Z,12.52
2022-09-21T09:03:49.272Z,11.95
2022-09-21T09:06:31.628Z,13.07
2022-09-21T09:09:13.909Z,8.98
2022-09-21T09:12:10.067Z,8.75
2022-09-21T09:14:54.833Z,8.63
2022-09-21T09:17:45.221Z,12.07
2022-09-21T09:20:30.144Z,10.82
2022-09-21T09:23:06.388Z,11.02
2022-09-21T09:25:39.568Z,10.57
2022-09-21T09:28:23.372Z,10.68
2022-09-21T09:30:59.890Z,9.85
2022-09-21T09:33:49.550Z,7.88
2022-09-21T09:36:17.172Z,10.85
2022-09-21T09:38:58.150Z,8.85
2022-09-21T09:41:45.790Z,10.15
2022-09-21T09:44:18.413Z,8.57
2022-09-21T09:47:03.861Z,7.53
2022-09-21T09:49:34.787Z,7.13
2022-09-21T09:52:02.071Z,11.38
2022-09-21T09:54:33.722Z,6.63
2022-09-21T09:57:03.437Z,6.97
2022-09-21T09:59:39.631Z,7.32
2022-09-21T10:02:23.354Z,6.38
2022-09-21T10:05:05.788Z,6.95
2022-09-21T10:07:41.151Z,9.02
2022-09-21T10:10:32.832Z,5.70
2022-09-21T10:13:13.295Z,7.82
2022-09-21T10:15:45.416Z,7.30
2022-09-21T10:18:17.154Z,5.32
2022-09-21T10:20:56.453Z,5.25
2022-09-21T10:23:23.777Z,3.03
2022-09-21T10:26:00.145Z,5.55
2022-09-21T10:28:28.273Z,3.60
2022-09-21T10:31:30.851Z,6.35
2022-09-21T10:34:14.245Z,4.80
2022-09-21T10:36:42.048Z,4.38
2022-09-21T10:39:22.300Z,6.63
2022-09-21T10:42:00.302Z,3.67
2022-09-21T10:44:38.528Z,4.28
2022-09-21T10:47:17.464Z,6.18
2022-09-21T10:49:48.089Z,3.60
2022-09-21T10:52:14.982Z,5.28
2022-09-21T10:54:44.249Z,4.65
2022-09-21T10:57:17.212Z,5.35
2022-09-21T10:59:44.537Z,4.90
2022-09-21T11:02:29.602Z,4.10
2022-09-21T11:05:15.095Z,6.45
2022-09-21T11:07:44.957Z,4.22
2022-09-21T11:10:42.261Z,3.63
2022-09-21T11:13:08.897Z,2.03
2022-09-21T11:15:51.665Z,4.00
2022-09-21T11:18:35.736Z,5.30
2022-09-21T11:21:13.150Z,2.85
2022-09-21T11:23:55.742Z,5.38
2022-09-21T11:26:29.682Z,5.57
2022-09-21T11:29:11.109Z,4.07
2022-09-21T11:31:57.854Z,2.85
2022-09-21T11:34:33.950Z,4.35
2022-09-21T11:37:10.785Z,2.35
2022-09-21T11:40:01.057Z,3.08
2022-09-21T11:42:46.476Z,3.58
2022-09-21T11:45:50.612Z,2.45
2022-09-21T11:48:36.303Z,1.85
2022-09-21T11:51:39.408Z,1.75
2022-09-21T11:54:50.045Z,1.48
2022-09-21T11:57:35.624Z,1.75
2022-09-21T12:00:09.902Z,1.58
2022-09-21T12:02:45.774Z,2.28
2022-09-21T12:05:26.795Z,3.50
2022-09-21T12:07:56.376Z,1.85
2022-09-21T12:11:12.585Z,1.88
2022-09-21T12:13:44.461Z,3.65
2022-09-21T12:16:35.974Z,5.60
2022-09-21T12:19:11.117Z,2.90
2022-09-21T12:21:47.355Z,4.00
2022-09-21T12:24:51.497Z,3.38
2022-09-21T12:27:50.201Z,2.90
2022-09-21T12:30:20.172Z,2.55
2022-09-21T12:33:06.451Z,3.95
2022-09-21T12:35:59.974Z,3.88
2022-09-21T12:38:36.333Z,5.20
2022-09-21T12:41:53.761Z,1.13
2022-09-21T12:44:33.605Z,3.30
2022-09-21T12:47:11.573Z,3.22
2022-09-21T12:49:48.086Z,3.15
2022-09-21T12:52:22.695Z,3.20
2022-09-21T12:54:59.108Z,3.40
2022-09-21T12:58:13.700Z,1.73
2022-09-21T13:00:47.177Z,4.50
2022-09-21T13:03:24.962Z,5.07
2022-09-21T13:06:09.808Z,1.73
2022-09-21T13:08:41.188Z,2.75
2022-09-21T13:11:09.095Z,1.07
2022-09-21T13:13:53.761Z,2.75
2022-09-21T13:16:33.140Z,2.28
2022-09-21T13:19:12.991Z,1.77
2022-09-21T13:21:44.103Z,1.92
2022-09-21T13:24:27.314Z,2.35
2022-09-21T13:26:59.917Z,4.38
2022-09-21T13:29:31.351Z,0.57
2022-09-21T13:32:11.209Z,2.10
2022-09-21T13:34:39.426Z,3.58
2022-09-21T13:37:13.798Z,3.83
2022-09-21T13:40:02.888Z,1.27
2022-09-21T13:42:32.721Z,2.65
2022-09-21T13:45:25.211Z,1.55
2022-09-21T13:48:00.100Z,1.52
2022-09-21T13:50:38.258Z,1.58
2022-09-21T13:53:19.311Z,3.50
2022-09-21T13:55:55.945Z,1.27
2022-09-21T13:58:35.811Z,2.50
2022-09-21T14:01:35.452Z,1.60
2022-09-21T14:04:03.956Z,2.17
2022-09-21T14:06:35.540Z,2.58
2022-09-21T14:09:08.907Z,2.80
2022-09-21T14:11:39.220Z,1.70
2022-09-21T14:14:14.509Z,1.38
2022-09-21T14:16:47.378Z,2.03
2022-09-21T14:19:19.976Z,3.28
2022-09-21T14:22:05.344Z,1.65
2022-09-21T14:24:45.036Z,1.63
2022-09-21T14:27:23.464Z,1.17
2022-09-21T14:29:55.322Z,1.65
2022-09-21T14:32:28.162Z,2.20
2022-09-21T14:35:01.984Z,1.67
2022-09-21T14:37:35.744Z,2.08
2022-09-21T14:40:25.475Z,2.28
2022-09-21T14:42:57.131Z,0.82
2022-09-21T14:48:41.852Z,1.58
2022-09-21T14:51:31.064Z,2.33
2022-09-21T14:54:20.528Z,0.70
2022-09-21T14:57:08.523Z,2.10
2022-09-21T14:59:48.009Z,1.33
2022-09-21T15:02:20.837Z,1.42
2022-09-21T15:05:23.088Z,1.58
2022-09-21T15:08:39.168Z,0.63
2022-09-21T15:11:28.201Z,1.27
2022-09-21T15:14:22.168Z,3.45
2022-09-21T15:16:51.632Z,2.15
2022-09-21T15:19:18.203Z,1.55
2022-09-21T15:21:46.824Z,3.22
2022-09-21T15:24:31.143Z,1.40
2022-09-21T15:27:10.031Z,1.08
2022-09-21T15:29:37.718Z,1.63
2022-09-21T15:32:06.613Z,1.15
2022-09-21T15:34:33.436Z,0.50
2022-09-21T15:37:17.286Z,1.33
2022-09-21T15:39:43.945Z,1.48
2022-09-21T15:42:17.636Z,2.05
2022-09-21T15:44:48.365Z,1.55
2022-09-21T15:47:19.204Z,0.43
2022-09-21T15:49:46.105Z,1.23
2022-09-21T15:52:32.965Z,2.38
2022-09-21T15:55:02.887Z,0.57
2022-09-21T15:57:40.333Z,1.27
2022-09-21T16:00:16.143Z,1.05
2022-09-21T16:02:52.064Z,1.17
2022-09-21T16:05:21.964Z,1.17
2022-09-21T16:07:49.590Z,2.00
2022-09-21T16:10:31.228Z,0.65
2022-09-21T16:13:38.282Z,0.98
2022-09-21T16:16:10.837Z,1.40
2022-09-21T16:18:42.994Z,1.55
2022-09-21T16:24:20.439Z,2.90
2022-09-21T16:27:02.126Z,0.95
2022-09-21T16:29:48.532Z,1.25
2022-09-21T16:32:18.158Z,0.70
2022-09-21T16:34:50.806Z,1.85
2022-09-21T16:37:24.083Z,3.15
2022-09-21T16:39:59.666Z,1.95
2022-09-21T16:42:33.925Z,1.98
2022-09-21T16:45:11.446Z,1.75
2022-09-21T16:47:40.096Z,1.92
2022-09-21T16:50:12.295Z,0.65
2022-09-21T16:55:18.034Z,0.95
2022-09-21T17:00:20.094Z,0.82
2022-09-21T17:02:50.546Z,1.58
2022-09-21T17:05:19.201Z,2.45
2022-09-21T17:08:02.229Z,1.60
2022-09-21T17:10:34.513Z,0.80
2022-09-21T17:15:31.816Z,1.35
2022-09-21T17:17:58.851Z,4.20
2022-09-21T17:20:35.197Z,1.98
2022-09-21T17:23:03.065Z,2.40
2022-09-21T17:25:33.241Z,1.58
2022-09-21T17:28:01.133Z,2.72
2022-09-21T17:30:28.221Z,2.00
2022-09-21T17:32:55.390Z,1.65
2022-09-21T17:35:30.929Z,1.83
2022-09-21T17:37:58.757Z,2.38
2022-09-21T17:40:28.026Z,2.63
2022-09-21T17:43:05.057Z,1.50
2022-09-21T17:45:58.989Z,3.72
2022-09-21T17:48:28.520Z,2.53
2022-09-21T17:50:57.725Z,1.17
2022-09-21T17:53:37.355Z,1.15
2022-09-21T17:56:16.148Z,2.20
2022-09-21T17:58:45.842Z,1.83
2022-09-21T18:01:41.787Z,1.75
2022-09-21T18:04:12.773Z,1.92
2022-09-21T18:06:39.602Z,1.77
2022-09-21T18:09:06.714Z,1.20
2022-09-21T18:11:55.493Z,1.42
2022-09-21T18:15:02.732Z,3.65
2022-09-21T18:17:35.137Z,2.80
2022-09-21T18:20:32.262Z,1.55
2022-09-21T18:23:18.396Z,3.22
2022-09-21T18:25:56.360Z,2.40
2022-09-21T18:29:00.184Z,2.28
2022-09-21T18:31:54.413Z,1.58
2022-09-21T18:34:50.983Z,1.58
2022-09-21T18:37:44.640Z,2.30
2022-09-21T18:40:22.540Z,1.33
2022-09-21T18:43:36.257Z,3.38
2022-09-21T18:46:12.801Z,2.15
2022-09-21T18:49:20.028Z,3.28
2022-09-21T18:52:12.153Z,2.28
2022-09-21T18:54:39.364Z,6.72
2022-09-21T18:57:12.761Z,2.08
2022-09-21T18:59:40.080Z,2.90
2022-09-21T19:02:15.320Z,1.63
2022-09-21T19:04:43.918Z,2.67
2022-09-21T19:07:20.626Z,3.95
2022-09-21T19:10:05.366Z,4.57
2022-09-21T19:13:02.332Z,4.00
2022-09-21T19:15:59.674Z,3.78
2022-09-21T19:18:54.858Z,3.92
2022-09-21T19:21:22.941Z,3.95
2022-09-21T19:24:17.472Z,5.93
2022-09-21T19:27:08.772Z,4.28
2022-09-21T19:30:12.752Z,5.43
2022-09-21T19:32:53.059Z,5.82
2022-09-21T19:35:25.632Z,6.97
2022-09-21T19:37:54.865Z,5.03
2022-09-21T19:40:26.815Z,5.55
2022-09-21T19:42:59.582Z,5.97
2022-09-21T19:45:29.176Z,5.93
2022-09-21T19:48:03.256Z,5.22
2022-09-21T19:50:53.778Z,5.45
2022-09-21T19:53:40.508Z,5.10
2022-09-21T19:56:34.959Z,5.97
2022-09-21T19:59:20.390Z,5.57
2022-09-21T20:01:59.557Z,6.30
2022-09-21T20:04:50.932Z,4.03
2022-09-21T20:07:44.407Z,4.20
2022-09-21T20:10:25.032Z,7.15
2022-09-21T20:13:06.172Z,3.70
2022-09-21T20:15:48.127Z,5.30
2022-09-21T20:18:19.121Z,3.55
2022-09-21T20:20:45.827Z,3.72
2022-09-21T20:23:15.505Z,4.70
2022-09-21T20:26:07.094Z,3.25
2022-09-21T20:28:34.628Z,4.68
2022-09-21T20:31:01.396Z,3.95
2022-09-21T20:33:31.321Z,3.70
2022-09-21T20:35:57.897Z,2.97
2022-09-21T20:38:26.869Z,3.33
2022-09-21T20:42:11.604Z,3.40
2022-09-21T20:44:43.503Z,3.67
2022-09-21T20:47:12.796Z,3.00
2022-09-21T20:49:42.223Z,3.00
2022-09-21T20:52:10.217Z,2.50
2022-09-21T20:54:45.466Z,3.40
2022-09-21T20:57:27.690Z,2.92
2022-09-21T20:59:55.529Z,4.75
2022-09-21T21:02:22.209Z,3.20
2022-09-21T21:04:52.938Z,3.38
2022-09-21T21:07:20.476Z,3.15
2022-09-21T21:10:00.527Z,2.70
2022-09-21T21:12:29.193Z,3.78
2022-09-21T21:15:00.179Z,5.57
2022-09-21T21:17:35.267Z,3.05
2022-09-21T21:20:06.484Z,3.88
2022-09-21T21:22:37.895Z,3.78
2022-09-21T21:25:11.060Z,4.68
2022-09-21T21:27:39.073Z,5.90
2022-09-21T21:30:10.915Z,4.30
2022-09-21T21:32:39.656Z,4.03
2022-09-21T21:35:09.285Z,3.78
2022-09-21T21:37:42.572Z,3.15
2022-09-21T21:40:10.010Z,4.57
2022-09-21T21:42:43.418Z,5.82
2022-09-21T21:45:11.760Z,5.05
2022-09-21T21:47:44.797Z,3.70
2022-09-21T21:50:15.289Z,4.28
2022-09-21T21:52:48.470Z,4.70
2022-09-21T21:55:17.881Z,3.08
2022-09-21T21:57:49.411Z,3.67
2022-09-21T22:00:16.032Z,3.30
2022-09-21T22:02:53.176Z,4.28
2022-09-21T22:05:27.142Z,3.95
2022-09-21T22:07:56.273Z,3.67
2022-09-21T22:10:25.569Z,4.20
2022-09-21T22:12:52.181Z,4.00
2022-09-21T22:15:18.823Z,5.18
2022-09-21T22:17:48.670Z,4.05
2022-09-21T22:20:22.797Z,7.57
2022-09-21T22:22:49.509Z,4.10
2022-09-21T22:25:20.302Z,3.65
2022-09-21T22:27:53.440Z,3.78
2022-09-21T22:30:20.032Z,4.05
2022-09-21T22:32:51.751Z,3.92
2022-09-21T22:35:37.064Z,3.58
2022-09-21T22:38:17.678Z,3.75
2022-09-21T22:40:46.763Z,4.75
2022-09-21T22:43:13.517Z,4.15
2022-09-21T22:46:08.338Z,5.70
2022-09-21T22:48:45.644Z,10.05
2022-09-21T22:51:19.381Z,6.05
2022-09-21T22:53:48.444Z,6.15
2022-09-21T22:56:26.710Z,7.28
2022-09-21T22:59:00.619Z,5.35
2022-09-21T23:01:45.589Z,7.57
2022-09-21T23:04:17.084Z,4.93
2022-09-21T23:06:49.425Z,4.70
2022-09-21T23:09:25.133Z,5.70
2022-09-21T23:11:59.624Z,4.68
2022-09-21T23:14:30.394Z,4.13
2022-09-21T23:17:02.057Z,6.50
2022-09-21T23:19:36.196Z,4.80
2022-09-21T23:22:07.318Z,6.63
2022-09-21T23:24:45.232Z,3.95
2022-09-21T23:27:18.752Z,5.65
2022-09-21T23:29:52.862Z,4.45
2022-09-21T23:32:21.560Z,4.25
2022-09-21T23:34:52.537Z,4.03
2022-09-21T23:37:25.801Z,4.72
2022-09-21T23:40:00.636Z,3.58
2022-09-21T23:45:07.222Z,3.20
2022-09-21T23:47:36.252Z,3.08
2022-09-21T23:50:13.657Z,6.22
2022-09-21T23:52:45.817Z,2.88
2022-09-21T23:55:17.188Z,4.68
2022-09-21T23:57:48.088Z,3.65
